Cincinnati, OH

11:15 AM EST on December 06, 2016 (GMT -0500)
Jacqueline Heights | | Change Station

Elev 801 ft 39.00 °N, 84.59 °W | Updated 2 seconds ago

Rain
Rain Mist
42.8 °F
Feels Like 42.8 °F
N
0.2
Wind Variable Wind from WSW
Gusts 2.5 mph

Today
High -- | Low -- °F
--% Chance of Precip.
Yesterday
High -- | Low -- °F
Precip. -- in
Pressure 29.69 in
Visibility 2.5 miles
Clouds Mostly Cloudy 600 ft
Overcast 1000 ft
Dew Point 42.6 °F
Humidity 99%
Rainfall 0.51 in
Snow Depth Not available.
7:43 AM 5:14 PM
Waxing Crescent, 43% visible
METAR KLUK 061553Z 00000KT 2 1/2SM RA BR BKN006 OVC010 06/06 A2968 RMK AO2 SLP052 P0008 T00610056
Pressure 29.69 in
Visibility 2.5 miles
Clouds Mostly Cloudy 600 ft
Overcast 1000 ft
Dew Point 42.6 °F
Humidity 99%
Rainfall 0.51 in
Snow Depth Not available.
7:43 AM 5:14 PM
Waxing Crescent, 43% visible
METAR KLUK 061553Z 00000KT 2 1/2SM RA BR BKN006 OVC010 06/06 A2968 RMK AO2 SLP052 P0008 T00610056

10-Day Weather Forecast

Almanac

Astronomy

Dec. 06, 2016 Rise Set
Actual Time
Civil Twilight
Nautical Twilight
Astronomical Twilight
Moon
Length of Visible Light
Length of Day
Tomorrow will be .
, % of the Moon is Illuminated

Today's Extremes

State Highs State Lows

Community

WunderPhotos

Upload Photos

1,955,959 photos uploaded!

WunderBlog® & News

Nearby

Air Quality

  Air Quality AQ Index Pollutant
Not available.

Snow Depth

Station Depth Elevation

Earthquake Activity

City Distance Mag. Time & Date
Minimum magnitude displayed is 2.5.

Coastal Water Temperatures

Place Temperature

Stations

Nearby Weather Stations

Station Location Temp. Windchill Dew Point Humidity Wind Precip. Elev Updated Type
                   

Watches & Warnings

There are currently no watches in effect.